createdAt,value
2018-04-19T00:00:46.894Z,13.54
2018-04-19T00:01:46.910Z,13.49
2018-04-19T00:02:46.924Z,13.47
2018-04-19T00:03:46.943Z,13.62
2018-04-19T00:04:46.974Z,13.52
2018-04-19T00:05:46.989Z,13.54
2018-04-19T00:06:47.070Z,13.46
2018-04-19T00:07:47.026Z,13.38
2018-04-19T00:10:18.813Z,13.54
2018-04-19T00:11:18.789Z,13.52
2018-04-19T00:13:11.815Z,13.28
2018-04-19T00:14:11.826Z,13.30
2018-04-19T00:16:04.887Z,13.33
2018-04-19T00:17:04.863Z,13.38
2018-04-19T00:18:57.881Z,13.33
2018-04-19T00:19:57.900Z,13.37
2018-04-19T00:21:50.979Z,13.35
2018-04-19T00:22:50.954Z,13.30
2018-04-19T00:24:43.984Z,13.37
2018-04-19T00:25:43.993Z,13.23
2018-04-19T00:27:37.046Z,13.23
2018-04-19T00:28:37.021Z,13.23
2018-04-19T00:30:39.912Z,13.12
2018-04-19T00:31:32.618Z,12.94
2018-04-19T00:33:26.658Z,13.04
2018-04-19T00:34:26.656Z,12.97
2018-04-19T00:36:19.757Z,12.83
2018-04-19T00:37:19.694Z,12.83
2018-04-19T00:39:13.227Z,12.82
2018-04-19T00:41:26.424Z,12.65
2018-04-19T00:42:26.271Z,12.72
2018-04-19T00:44:19.295Z,12.82
2018-04-19T00:45:19.301Z,12.80
2018-04-19T00:47:12.369Z,12.80
2018-04-19T00:48:12.338Z,12.75
2018-04-19T00:50:05.368Z,12.79
2018-04-19T00:51:05.502Z,12.70
2018-04-19T00:53:10.311Z,12.90
2018-04-19T00:54:10.264Z,12.93
2018-04-19T00:55:10.298Z,12.93
2018-04-19T00:56:10.322Z,12.90
2018-04-19T00:57:10.325Z,12.80
2018-04-19T00:58:10.336Z,12.80
2018-04-19T00:59:10.362Z,12.85
2018-04-19T01:00:10.394Z,12.83
2018-04-19T01:01:10.395Z,12.68
2018-04-19T01:02:10.438Z,12.79
2018-04-19T01:03:10.460Z,12.79
2018-04-19T01:04:10.452Z,12.68
2018-04-19T01:05:10.472Z,12.73
2018-04-19T01:06:10.494Z,12.70
2018-04-19T01:07:10.501Z,12.73
2018-04-19T01:08:10.527Z,12.80
2018-04-19T01:09:10.537Z,12.80
2018-04-19T01:10:10.557Z,12.80
2018-04-19T01:11:10.579Z,12.80
2018-04-19T01:12:10.593Z,12.62
2018-04-19T01:13:10.633Z,12.65
2018-04-19T01:14:10.645Z,12.37
2018-04-19T01:15:10.650Z,12.12
2018-04-19T01:16:10.675Z,12.24
2018-04-19T01:17:10.686Z,12.32
2018-04-19T01:18:10.712Z,12.39
2018-04-19T01:19:10.729Z,12.42
2018-04-19T01:20:10.831Z,12.53
2018-04-19T01:21:10.774Z,12.36
2018-04-19T01:22:10.783Z,12.50
2018-04-19T01:23:10.791Z,12.54
2018-04-19T01:24:10.815Z,12.53
2018-04-19T01:25:10.833Z,12.55
2018-04-19T01:26:10.858Z,12.32
2018-04-19T01:27:10.873Z,12.27
2018-04-19T01:28:10.884Z,12.27
2018-04-19T01:29:10.907Z,12.43
2018-04-19T01:30:10.925Z,12.32
2018-04-19T01:31:11.023Z,12.37
2018-04-19T01:32:10.966Z,12.31
2018-04-19T01:33:10.976Z,12.43
2018-04-19T01:34:11.000Z,12.35
2018-04-19T01:35:11.015Z,12.31
2018-04-19T01:36:11.032Z,12.20
2018-04-19T01:37:11.058Z,12.36
2018-04-19T01:38:11.075Z,12.24
2018-04-19T01:39:11.104Z,12.27
2018-04-19T01:40:11.102Z,12.35
2018-04-19T01:41:11.123Z,12.32
2018-04-19T01:42:11.163Z,12.27
2018-04-19T01:43:11.175Z,12.27
2018-04-19T01:44:11.179Z,12.31
2018-04-19T01:45:11.207Z,12.31
2018-04-19T01:46:11.222Z,12.13
2018-04-19T01:47:11.240Z,12.31
2018-04-19T01:48:11.256Z,12.24
2018-04-19T01:49:11.282Z,12.15
2018-04-19T01:50:11.305Z,12.18
2018-04-19T01:51:11.305Z,12.31
2018-04-19T01:52:11.325Z,12.29
2018-04-19T01:53:11.342Z,12.31
2018-04-19T01:54:11.357Z,12.39
2018-04-19T01:55:11.378Z,12.32
2018-04-19T01:56:11.389Z,12.35
2018-04-19T01:57:11.425Z,12.32
2018-04-19T01:58:11.431Z,12.32
2018-04-19T01:59:11.443Z,12.29
2018-04-19T02:00:11.466Z,12.35
2018-04-19T02:01:11.482Z,12.36
2018-04-19T02:02:11.500Z,11.94
2018-04-19T02:03:11.538Z,12.02
2018-04-19T02:04:11.537Z,12.15
2018-04-19T02:05:11.558Z,12.18
2018-04-19T02:06:11.576Z,12.17
2018-04-19T02:07:11.620Z,12.17
2018-04-19T02:08:11.619Z,12.20
2018-04-19T02:09:11.630Z,12.22
2018-04-19T02:10:11.645Z,12.22
2018-04-19T02:11:11.659Z,12.20
2018-04-19T02:12:11.686Z,12.25
2018-04-19T02:13:11.704Z,12.37
2018-04-19T02:14:11.719Z,12.32
2018-04-19T02:15:11.731Z,12.32
2018-04-19T02:16:11.771Z,12.29
2018-04-19T02:17:11.775Z,12.28
2018-04-19T02:18:11.791Z,12.27
2018-04-19T02:19:11.862Z,12.32
2018-04-19T02:20:11.820Z,12.31
2018-04-19T02:21:11.863Z,12.27
2018-04-19T02:22:11.864Z,12.28
2018-04-19T02:23:11.880Z,12.31
2018-04-19T02:24:11.900Z,12.24
2018-04-19T02:25:11.917Z,12.35
2018-04-19T02:26:11.931Z,12.29
2018-04-19T02:27:11.980Z,12.32
2018-04-19T02:28:11.967Z,12.27
2018-04-19T02:29:11.985Z,12.31
2018-04-19T02:30:12.005Z,12.18
2018-04-19T02:31:12.020Z,12.21
2018-04-19T02:32:12.081Z,12.25
2018-04-19T02:33:12.063Z,12.18
2018-04-19T02:34:12.080Z,12.20
2018-04-19T02:35:12.096Z,12.21
2018-04-19T02:36:12.119Z,12.15
2018-04-19T02:37:12.128Z,12.12
2018-04-19T02:38:12.152Z,12.07
2018-04-19T02:39:12.164Z,12.02
2018-04-19T02:40:12.188Z,11.95
2018-04-19T02:41:12.219Z,11.95
2018-04-19T02:42:12.220Z,11.87
2018-04-19T02:43:12.237Z,11.78
2018-04-19T02:44:12.264Z,11.83
2018-04-19T02:45:12.285Z,11.52
2018-04-19T02:46:12.310Z,11.44
2018-04-19T02:47:12.308Z,11.60
2018-04-19T02:48:12.341Z,11.50
2018-04-19T02:49:12.356Z,11.43
2018-04-19T02:50:12.367Z,11.45
2018-04-19T02:51:12.379Z,11.62
2018-04-19T02:52:12.410Z,11.68
2018-04-19T02:53:12.413Z,11.68
2018-04-19T02:54:12.431Z,11.68
2018-04-19T02:55:12.457Z,11.72
2018-04-19T02:56:12.465Z,11.78
2018-04-19T02:57:12.492Z,11.81
2018-04-19T02:58:12.503Z,11.78
2018-04-19T02:59:12.523Z,11.83
2018-04-19T03:00:12.539Z,11.83
2018-04-19T03:01:12.558Z,11.94
2018-04-19T03:02:12.579Z,11.95
2018-04-19T03:03:12.605Z,11.99
2018-04-19T03:04:12.633Z,11.97
2018-04-19T03:05:12.648Z,11.84
2018-04-19T03:06:12.646Z,11.90
2018-04-19T03:07:12.663Z,12.03
2018-04-19T03:08:12.688Z,11.95
2018-04-19T03:09:12.716Z,11.97
2018-04-19T03:10:12.720Z,11.95
2018-04-19T03:11:12.743Z,11.99
2018-04-19T03:12:12.766Z,12.02
2018-04-19T03:13:12.772Z,12.07
2018-04-19T03:14:12.825Z,12.00
2018-04-19T03:15:12.832Z,12.03
2018-04-19T03:16:12.831Z,11.94
2018-04-19T03:17:12.844Z,11.68
2018-04-19T03:18:12.856Z,11.69
2018-04-19T03:19:12.876Z,11.81
2018-04-19T03:20:12.896Z,11.87
2018-04-19T03:21:12.918Z,11.62
2018-04-19T03:22:12.934Z,11.69
2018-04-19T03:23:12.959Z,11.69
2018-04-19T03:24:12.971Z,11.66
2018-04-19T03:25:12.989Z,11.63
2018-04-19T03:26:13.001Z,11.47
2018-04-19T03:27:13.031Z,11.52
2018-04-19T03:28:13.044Z,11.52
2018-04-19T03:29:13.057Z,11.52
2018-04-19T03:30:13.071Z,11.51
2018-04-19T03:31:13.096Z,11.45
2018-04-19T03:32:13.111Z,11.29
2018-04-19T03:33:13.131Z,11.41
2018-04-19T03:34:13.154Z,11.50
2018-04-19T03:35:13.167Z,11.44
2018-04-19T03:36:13.193Z,11.44
2018-04-19T03:37:13.203Z,11.32
2018-04-19T03:38:13.224Z,11.44
2018-04-19T03:39:13.232Z,11.45
2018-04-19T03:40:13.254Z,11.43
2018-04-19T03:41:13.268Z,11.40
2018-04-19T03:42:13.298Z,11.33
2018-04-19T03:43:13.302Z,11.32
2018-04-19T03:44:13.327Z,11.08
2018-04-19T03:45:13.357Z,11.26
2018-04-19T03:46:13.368Z,11.35
2018-04-19T03:47:13.378Z,11.30
2018-04-19T03:48:13.393Z,11.37
2018-04-19T03:49:13.416Z,11.37
2018-04-19T03:50:13.436Z,11.11
2018-04-19T03:51:13.442Z,11.12
2018-04-19T03:52:13.496Z,11.12
2018-04-19T03:53:13.486Z,11.12
2018-04-19T03:54:13.501Z,11.25
2018-04-19T03:55:13.515Z,11.22
2018-04-19T03:56:13.533Z,11.30
2018-04-19T03:57:13.549Z,11.32
2018-04-19T03:58:13.580Z,11.33
2018-04-19T03:59:13.585Z,11.27
2018-04-19T04:00:13.611Z,11.29
2018-04-19T04:01:13.648Z,11.26
2018-04-19T04:02:13.641Z,11.27
2018-04-19T04:03:13.676Z,11.14
2018-04-19T04:04:13.684Z,11.19
2018-04-19T04:05:13.699Z,11.30
2018-04-19T04:06:13.709Z,11.37
2018-04-19T04:07:13.725Z,11.41
2018-04-19T04:08:13.758Z,11.44
2018-04-19T04:09:13.769Z,11.36
2018-04-19T04:10:13.796Z,11.40
2018-04-19T04:11:13.807Z,11.40
2018-04-19T04:12:13.818Z,11.43
2018-04-19T04:13:13.833Z,11.47
2018-04-19T04:14:13.853Z,11.48
2018-04-19T04:15:13.877Z,11.37
2018-04-19T04:16:13.884Z,11.40
2018-04-19T04:17:13.912Z,11.41
2018-04-19T04:18:13.920Z,11.48
2018-04-19T04:19:13.940Z,11.40
2018-04-19T04:20:13.953Z,11.48
2018-04-19T04:21:13.982Z,11.44
2018-04-19T04:22:13.998Z,11.43
2018-04-19T04:23:14.008Z,11.52
2018-04-19T04:24:14.024Z,11.50
2018-04-19T04:25:14.050Z,11.47
2018-04-19T04:26:14.064Z,11.45
2018-04-19T04:27:14.091Z,11.47
2018-04-19T04:28:14.105Z,11.51
2018-04-19T04:29:14.134Z,11.45
2018-04-19T04:30:14.136Z,11.40
2018-04-19T04:31:14.227Z,11.14
2018-04-19T04:32:14.167Z,11.02
2018-04-19T04:33:14.184Z,11.14
2018-04-19T04:34:14.206Z,11.05
2018-04-19T04:35:14.247Z,11.15
2018-04-19T04:36:14.241Z,11.26
2018-04-19T04:37:14.259Z,11.41
2018-04-19T04:38:14.278Z,11.26
2018-04-19T04:39:14.294Z,11.19
2018-04-19T04:40:14.312Z,11.35
2018-04-19T04:41:14.331Z,11.43
2018-04-19T04:42:14.346Z,11.48
2018-04-19T04:43:14.374Z,11.44
2018-04-19T04:44:14.383Z,11.59
2018-04-19T04:45:14.405Z,11.66
2018-04-19T04:46:14.417Z,11.69
2018-04-19T04:47:14.438Z,11.69
2018-04-19T04:48:14.452Z,11.84
2018-04-19T04:49:14.468Z,11.84
2018-04-19T04:50:14.499Z,11.86
2018-04-19T04:51:14.504Z,11.80
2018-04-19T04:52:14.518Z,11.94
2018-04-19T04:53:14.540Z,12.02
2018-04-19T04:54:14.564Z,12.02
2018-04-19T04:55:14.571Z,12.02
2018-04-19T04:56:14.593Z,12.00
2018-04-19T04:57:14.610Z,11.97
2018-04-19T04:58:14.644Z,11.99
2018-04-19T04:59:14.645Z,12.10
2018-04-19T05:00:14.680Z,12.10
2018-04-19T05:01:14.687Z,12.10
2018-04-19T05:02:14.702Z,12.21
2018-04-19T05:03:14.721Z,12.20
2018-04-19T05:04:14.736Z,12.46
2018-04-19T05:05:14.766Z,12.97
2018-04-19T05:06:14.768Z,13.47
2018-04-19T05:07:14.793Z,13.92
2018-04-19T05:08:14.813Z,14.10
2018-04-19T05:09:14.835Z,14.68
2018-04-19T05:10:14.855Z,15.15
2018-04-19T05:11:14.885Z,15.54
2018-04-19T05:12:14.884Z,16.01
2018-04-19T05:13:14.911Z,16.35
2018-04-19T05:14:14.920Z,16.57
2018-04-19T05:15:14.941Z,17.01
2018-04-19T05:16:14.974Z,17.24
2018-04-19T05:17:14.986Z,16.66
2018-04-19T05:18:15.002Z,17.01
2018-04-19T05:19:15.045Z,17.54
2018-04-19T05:20:15.048Z,17.60
2018-04-19T05:21:15.066Z,18.04
2018-04-19T05:22:15.105Z,18.31
2018-04-19T05:23:15.115Z,18.43
2018-04-19T05:24:15.137Z,18.74
2018-04-19T05:25:15.165Z,18.74
2018-04-19T05:26:15.216Z,19.12
2018-04-19T05:27:15.193Z,19.31
2018-04-19T05:28:15.221Z,19.19
2018-04-19T05:29:15.242Z,19.51
2018-04-19T05:30:15.263Z,19.58
2018-04-19T05:31:15.286Z,20.11
2018-04-19T05:32:15.315Z,20.41
2018-04-19T05:33:15.337Z,20.62
2018-04-19T05:34:15.359Z,20.97
2018-04-19T05:35:15.376Z,21.30
2018-04-19T05:36:15.402Z,21.18
2018-04-19T05:37:15.470Z,21.39
2018-04-19T05:38:15.454Z,21.76
2018-04-19T05:39:15.470Z,21.82
2018-04-19T05:40:15.497Z,22.06
2018-04-19T05:41:15.525Z,22.36
2018-04-19T05:42:15.552Z,22.59
2018-04-19T05:43:15.569Z,23.00
2018-04-19T05:44:15.605Z,22.76
2018-04-19T05:45:15.631Z,23.00
2018-04-19T05:46:15.641Z,23.21
2018-04-19T05:47:15.667Z,23.00
2018-04-19T05:48:15.689Z,23.41
2018-04-19T05:49:15.725Z,22.93
2018-04-19T05:50:15.737Z,22.88
2018-04-19T05:51:15.763Z,23.18
2018-04-19T05:52:15.803Z,23.47
2018-04-19T05:53:15.818Z,24.16
2018-04-19T05:54:15.837Z,24.63
2018-04-19T05:55:15.869Z,24.85
2018-04-19T05:56:15.893Z,24.85
2018-04-19T05:57:15.919Z,24.85
2018-04-19T05:58:15.938Z,24.74
2018-04-19T05:59:15.977Z,24.58
2018-04-19T06:00:15.997Z,23.86
2018-04-19T06:01:16.025Z,23.46
2018-04-19T06:02:16.048Z,24.05
2018-04-19T06:03:16.071Z,23.08
2018-04-19T06:04:16.095Z,23.15
2018-04-19T06:05:16.123Z,23.25
2018-04-19T06:06:16.147Z,23.51
2018-04-19T06:07:16.174Z,24.03
2018-04-19T06:08:16.209Z,24.11
2018-04-19T06:09:16.232Z,24.14
2018-04-19T06:10:16.251Z,24.21
2018-04-19T06:11:16.278Z,23.93
2018-04-19T06:12:16.319Z,23.83
2018-04-19T06:13:16.329Z,24.54
2018-04-19T06:14:16.372Z,25.26
2018-04-19T06:15:16.387Z,26.09
2018-04-19T06:16:16.416Z,26.44
2018-04-19T06:17:16.442Z,27.07
2018-04-19T06:18:16.470Z,27.33
2018-04-19T06:19:16.499Z,27.52
2018-04-19T06:20:16.517Z,27.96
2018-04-19T06:21:16.555Z,27.82
2018-04-19T06:22:16.578Z,27.21
2018-04-19T06:23:16.597Z,27.64
2018-04-19T06:24:16.625Z,27.96
2018-04-19T06:25:16.673Z,28.45
2018-04-19T06:26:16.688Z,28.64
2018-04-19T06:27:16.722Z,28.79
2018-04-19T06:28:16.742Z,28.74
2018-04-19T06:29:16.770Z,28.81
2018-04-19T06:30:16.796Z,28.62
2018-04-19T06:31:16.826Z,28.26
2018-04-19T06:32:16.849Z,28.26
2018-04-19T06:33:16.877Z,29.13
2018-04-19T06:34:16.904Z,29.26
2018-04-19T06:35:16.952Z,29.42
2018-04-19T06:36:16.953Z,29.32
2018-04-19T06:37:16.989Z,29.07
2018-04-19T06:38:17.017Z,29.63
2018-04-19T06:39:17.039Z,30.10
2018-04-19T06:40:17.065Z,29.51
2018-04-19T06:41:17.094Z,28.19
2018-04-19T06:42:17.129Z,27.70
2018-04-19T06:43:17.155Z,26.78
2018-04-19T06:44:17.179Z,26.63
2018-04-19T06:45:17.210Z,27.21
2018-04-19T06:46:17.243Z,27.83
2018-04-19T06:47:17.264Z,28.44
2018-04-19T06:48:17.299Z,28.27
2018-04-19T06:49:17.353Z,28.56
2018-04-19T06:50:17.361Z,28.82
2018-04-19T06:51:17.383Z,28.22
2018-04-19T06:52:17.412Z,28.23
2018-04-19T06:53:17.440Z,27.22
2018-04-19T06:54:17.468Z,26.44
2018-04-19T06:55:17.487Z,26.95
2018-04-19T06:56:17.532Z,27.54
2018-04-19T06:57:17.555Z,29.12
2018-04-19T06:58:17.583Z,29.87
2018-04-19T06:59:17.604Z,30.28
2018-04-19T07:00:17.634Z,30.32
2018-04-19T07:01:17.660Z,30.84
2018-04-19T07:02:17.694Z,30.39
2018-04-19T07:03:17.728Z,28.57
2018-04-19T07:04:17.754Z,29.05
2018-04-19T07:05:17.781Z,29.47
2018-04-19T07:06:17.827Z,29.01
2018-04-19T07:07:17.837Z,28.79
2018-04-19T07:08:17.870Z,28.93
2018-04-19T07:09:17.893Z,29.24
2018-04-19T07:10:17.926Z,29.31
2018-04-19T07:11:17.967Z,28.45
2018-04-19T07:12:17.987Z,28.14
2018-04-19T07:13:18.011Z,28.17
2018-04-19T07:14:18.042Z,28.81
2018-04-19T07:15:18.068Z,28.81
2018-04-19T07:16:18.098Z,28.48
2018-04-19T07:17:18.157Z,28.59
2018-04-19T07:18:18.155Z,29.57
2018-04-19T07:19:18.184Z,28.94
2018-04-19T07:20:18.210Z,28.67
2018-04-19T07:21:18.240Z,27.71
2018-04-19T07:22:18.279Z,27.68
2018-04-19T07:23:18.303Z,28.96
2018-04-19T07:24:18.339Z,28.79
2018-04-19T07:25:18.360Z,29.38
2018-04-19T07:26:18.393Z,30.39
2018-04-19T07:27:18.431Z,29.17
2018-04-19T07:28:18.454Z,29.49
2018-04-19T07:29:18.475Z,29.93
2018-04-19T07:30:18.509Z,29.29
2018-04-19T07:31:18.540Z,29.26
2018-04-19T07:32:18.602Z,29.79
2018-04-19T07:33:18.602Z,29.50
2018-04-19T07:34:18.629Z,30.28
2018-04-19T07:35:18.668Z,31.18
2018-04-19T07:36:18.681Z,30.81
2018-04-19T07:37:18.720Z,30.77
2018-04-19T07:38:18.745Z,30.77
2018-04-19T07:39:18.776Z,30.61
2018-04-19T07:40:18.803Z,29.91
2018-04-19T07:41:18.844Z,29.16
2018-04-19T07:42:18.860Z,28.97
2018-04-19T07:43:18.919Z,29.44
2018-04-19T07:44:18.920Z,30.03
2018-04-19T07:45:18.952Z,30.31
2018-04-19T07:46:18.975Z,29.94
2018-04-19T07:47:19.008Z,29.63
2018-04-19T07:48:19.040Z,29.68
2018-04-19T07:49:19.072Z,30.06
2018-04-19T07:50:19.127Z,30.88
2018-04-19T07:51:19.130Z,31.93
2018-04-19T07:52:19.168Z,32.30
2018-04-19T07:53:19.191Z,31.51
2018-04-19T07:54:19.225Z,30.80
2018-04-19T07:55:19.247Z,30.43
2018-04-19T07:56:19.274Z,30.59
2018-04-19T07:57:19.304Z,30.94
2018-04-19T07:58:19.343Z,30.43
2018-04-19T07:59:19.366Z,30.18
2018-04-19T08:00:19.401Z,29.32
2018-04-19T08:01:19.433Z,29.94
2018-04-19T08:02:19.466Z,30.47
2018-04-19T08:03:19.491Z,30.50
2018-04-19T08:04:19.522Z,31.15
2018-04-19T08:05:19.621Z,30.53
2018-04-19T08:06:19.579Z,30.37
2018-04-19T08:07:19.609Z,30.09
2018-04-19T08:08:19.634Z,31.20
2018-04-19T08:09:19.664Z,32.95
2018-04-19T08:10:19.698Z,32.14
2018-04-19T08:11:19.760Z,31.29
2018-04-19T08:12:19.756Z,30.92
2018-04-19T08:13:19.792Z,32.45
2018-04-19T08:14:19.816Z,34.02
2018-04-19T08:15:19.849Z,33.12
2018-04-19T08:16:19.892Z,32.38
2018-04-19T08:17:19.902Z,32.48
2018-04-19T08:18:19.935Z,33.65
2018-04-19T08:19:19.968Z,34.51
2018-04-19T08:20:19.992Z,35.22
2018-04-19T08:21:20.026Z,33.62
2018-04-19T08:22:20.056Z,32.29
2018-04-19T08:23:20.078Z,32.90
2018-04-19T08:24:20.111Z,32.19
2018-04-19T08:25:20.137Z,31.21
2018-04-19T08:26:20.187Z,31.64
2018-04-19T08:27:20.193Z,32.97
2018-04-19T08:28:20.220Z,33.89
2018-04-19T08:29:20.251Z,33.55
2018-04-19T08:30:20.296Z,33.39
2018-04-19T08:31:20.315Z,31.77
2018-04-19T08:32:20.329Z,30.91
2018-04-19T08:33:20.357Z,30.37
2018-04-19T08:34:20.398Z,30.05
2018-04-19T08:35:20.413Z,30.27
2018-04-19T08:36:20.438Z,30.24
2018-04-19T08:37:20.472Z,29.95
2018-04-19T08:38:20.496Z,29.56
2018-04-19T08:39:20.518Z,28.93
2018-04-19T08:40:20.545Z,28.41
2018-04-19T08:41:20.600Z,27.90
2018-04-19T08:42:20.626Z,28.22
2018-04-19T08:43:20.634Z,27.65
2018-04-19T08:44:20.658Z,27.08
2018-04-19T08:45:20.684Z,27.05
2018-04-19T08:46:20.701Z,27.14
2018-04-19T08:47:20.727Z,26.74
2018-04-19T08:48:20.756Z,27.10
2018-04-19T08:49:20.783Z,27.60
2018-04-19T08:50:20.803Z,27.87
2018-04-19T08:51:20.829Z,27.47
2018-04-19T08:52:20.870Z,26.73
2018-04-19T08:53:20.883Z,26.56
2018-04-19T08:54:20.914Z,26.60
2018-04-19T08:55:20.927Z,26.71
2018-04-19T08:56:20.957Z,26.58
2018-04-19T08:57:20.991Z,26.84
2018-04-19T08:58:21.007Z,27.00
2018-04-19T08:59:21.041Z,26.81
2018-04-19T09:00:21.054Z,27.22
2018-04-19T09:01:21.088Z,27.00
2018-04-19T09:02:21.104Z,26.68
2018-04-19T09:03:21.137Z,26.59
2018-04-19T09:04:21.173Z,26.92
2018-04-19T09:05:21.180Z,26.95
2018-04-19T09:06:21.214Z,26.80
2018-04-19T09:07:21.232Z,27.35
2018-04-19T09:08:21.261Z,27.64
2018-04-19T09:09:21.297Z,27.89
2018-04-19T09:10:21.304Z,27.83
2018-04-19T09:11:21.323Z,27.36
2018-04-19T09:12:21.353Z,27.33
2018-04-19T09:13:21.374Z,27.55
2018-04-19T09:14:21.408Z,27.65
2018-04-19T09:15:21.427Z,27.11
2018-04-19T09:16:21.449Z,27.05
2018-04-19T09:17:21.477Z,27.44
2018-04-19T09:18:21.494Z,27.40
2018-04-19T09:19:21.525Z,27.60
2018-04-19T09:20:21.550Z,27.10
2018-04-19T09:21:21.583Z,26.78
2018-04-19T09:22:21.608Z,27.00
2018-04-19T09:23:21.626Z,27.05
2018-04-19T09:24:21.672Z,27.51
2018-04-19T09:25:21.672Z,27.83
2018-04-19T09:26:21.701Z,27.45
2018-04-19T09:27:21.725Z,27.48
2018-04-19T09:28:21.774Z,27.85
2018-04-19T09:29:21.769Z,27.59
2018-04-19T09:30:21.820Z,27.77
2018-04-19T09:31:21.816Z,27.82
2018-04-19T09:32:21.844Z,27.71
2018-04-19T09:33:21.866Z,27.85
2018-04-19T09:34:21.893Z,28.11
2018-04-19T09:35:21.924Z,28.15
2018-04-19T09:36:21.942Z,28.41
2018-04-19T09:37:21.975Z,28.37
2018-04-19T09:38:21.989Z,28.01
2018-04-19T09:39:22.034Z,28.04
2018-04-19T09:40:22.042Z,28.41
2018-04-19T09:41:22.065Z,28.38
2018-04-19T09:42:22.091Z,28.62
2018-04-19T09:43:22.113Z,28.67
2018-04-19T09:44:22.167Z,28.27
2018-04-19T09:45:22.163Z,28.33
2018-04-19T09:46:22.186Z,28.41
2018-04-19T09:47:22.209Z,28.41
2018-04-19T09:48:22.236Z,28.23
2018-04-19T09:49:22.265Z,28.66
2018-04-19T09:50:22.309Z,28.67
2018-04-19T09:51:22.327Z,28.54
2018-04-19T09:52:22.343Z,28.67
2018-04-19T09:53:22.390Z,28.05
2018-04-19T09:54:22.387Z,28.37
2018-04-19T09:55:22.415Z,28.66
2018-04-19T09:56:22.447Z,28.59
2018-04-19T09:57:22.459Z,28.64
2018-04-19T09:58:22.487Z,28.94
2018-04-19T09:59:22.513Z,29.01
2018-04-19T10:00:22.535Z,28.79
2018-04-19T10:01:22.561Z,29.10
2018-04-19T10:02:22.639Z,28.86
2018-04-19T10:03:22.625Z,28.11
2018-04-19T10:04:22.636Z,28.42
2018-04-19T10:05:22.673Z,28.27
2018-04-19T10:06:22.690Z,27.67
2018-04-19T10:07:22.716Z,27.71
2018-04-19T10:08:22.739Z,27.85
2018-04-19T10:09:22.758Z,27.63
2018-04-19T10:10:22.834Z,27.95
2018-04-19T10:11:22.806Z,27.63
2018-04-19T10:12:22.836Z,27.51
2018-04-19T10:13:22.857Z,27.67
2018-04-19T10:14:22.885Z,27.86
2018-04-19T10:15:22.922Z,27.77
2018-04-19T10:16:22.957Z,27.54
2018-04-19T10:17:22.959Z,27.58
2018-04-19T10:18:22.988Z,27.40
2018-04-19T10:19:23.012Z,27.48
2018-04-19T10:20:23.031Z,27.73
2018-04-19T10:21:23.094Z,27.83
2018-04-19T10:22:23.090Z,28.04
2018-04-19T10:23:23.117Z,27.80
2018-04-19T10:24:23.145Z,27.80
2018-04-19T10:25:23.157Z,27.68
2018-04-19T10:26:23.183Z,27.70
2018-04-19T10:27:23.254Z,27.98
2018-04-19T10:28:23.236Z,27.89
2018-04-19T10:29:23.254Z,27.95
2018-04-19T10:30:23.280Z,27.63
2018-04-19T10:31:23.310Z,27.44
2018-04-19T10:32:23.334Z,27.68
2018-04-19T10:33:23.353Z,28.20
2018-04-19T10:34:23.396Z,28.07
2018-04-19T10:35:23.403Z,28.62
2018-04-19T10:36:23.437Z,28.76
2018-04-19T10:37:23.452Z,28.96
2018-04-19T10:38:23.479Z,28.98
2018-04-19T10:39:23.505Z,28.27
2018-04-19T10:40:23.533Z,27.93
2018-04-19T10:41:23.558Z,27.95
2018-04-19T10:42:23.573Z,27.87
2018-04-19T10:43:23.611Z,27.93
2018-04-19T10:44:23.635Z,28.38
2018-04-19T10:45:23.652Z,28.41
2018-04-19T10:46:23.677Z,28.41
2018-04-19T10:47:23.714Z,28.35
2018-04-19T10:48:23.741Z,28.54
2018-04-19T10:49:23.802Z,28.81
2018-04-19T10:50:23.775Z,28.12
2018-04-19T10:51:23.808Z,28.54
2018-04-19T10:52:23.831Z,28.64
2018-04-19T10:53:23.856Z,28.67
2018-04-19T10:54:23.881Z,28.96
2018-04-19T10:55:23.900Z,29.35
2018-04-19T10:56:23.938Z,29.27
2018-04-19T10:57:23.970Z,29.27
2018-04-19T10:58:23.984Z,29.26
2018-04-19T10:59:24.005Z,29.24
2018-04-19T11:00:24.035Z,29.68
2018-04-19T11:01:24.057Z,29.60
2018-04-19T11:02:24.080Z,29.81
2018-04-19T11:03:24.114Z,29.42
2018-04-19T11:04:24.132Z,29.41
2018-04-19T11:05:24.166Z,28.91
2018-04-19T11:06:24.179Z,29.19
2018-04-19T11:07:24.205Z,29.17
2018-04-19T11:08:24.233Z,29.49
2018-04-19T11:09:24.257Z,29.45
2018-04-19T11:10:24.276Z,29.29
2018-04-19T11:11:24.301Z,29.16
2018-04-19T11:12:24.328Z,29.26
2018-04-19T11:13:24.365Z,29.38
2018-04-19T11:14:24.379Z,29.53
2018-04-19T11:15:24.415Z,29.61
2018-04-19T11:16:24.429Z,29.76
2018-04-19T11:17:24.458Z,29.91
2018-04-19T11:18:24.487Z,29.79
2018-04-19T11:19:24.507Z,29.84
2018-04-19T11:20:24.526Z,29.93
2018-04-19T11:21:24.566Z,29.98
2018-04-19T11:22:24.577Z,30.08
2018-04-19T11:23:24.611Z,29.68
2018-04-19T11:24:24.631Z,29.34
2018-04-19T11:25:24.684Z,29.66
2018-04-19T11:26:24.685Z,29.82
2018-04-19T11:27:24.704Z,29.97
2018-04-19T11:28:24.737Z,30.02
2018-04-19T11:29:24.765Z,30.10
2018-04-19T11:30:24.785Z,30.31
2018-04-19T11:31:24.808Z,30.24
2018-04-19T11:32:24.834Z,30.28
2018-04-19T11:33:24.864Z,30.27
2018-04-19T11:34:24.888Z,30.37
2018-04-19T11:35:24.911Z,30.37
2018-04-19T11:36:24.936Z,30.43
2018-04-19T11:37:24.955Z,30.31
2018-04-19T11:38:24.986Z,30.57
2018-04-19T11:39:25.013Z,30.68
2018-04-19T11:40:25.036Z,30.73
2018-04-19T11:41:25.064Z,29.90
2018-04-19T11:42:25.091Z,29.38
2018-04-19T11:43:25.113Z,29.38
2018-04-19T11:44:25.180Z,29.45
2018-04-19T11:45:25.160Z,29.29
2018-04-19T11:46:25.187Z,29.19
2018-04-19T11:47:25.222Z,29.71
2018-04-19T11:48:25.251Z,29.59
2018-04-19T11:49:25.266Z,29.38
2018-04-19T11:50:25.298Z,29.54
2018-04-19T11:51:25.317Z,29.10
2018-04-19T11:52:25.341Z,29.32
2018-04-19T11:53:25.367Z,29.53
2018-04-19T11:54:25.392Z,29.91
2018-04-19T11:55:25.418Z,29.75
2018-04-19T11:56:25.441Z,29.69
2018-04-19T11:57:25.470Z,30.08
2018-04-19T11:58:25.497Z,30.02
2018-04-19T11:59:25.534Z,29.45
2018-04-19T12:00:25.548Z,29.12
2018-04-19T12:01:25.572Z,29.61
2018-04-19T12:02:25.600Z,29.07
2018-04-19T12:03:25.621Z,29.24
2018-04-19T12:04:25.646Z,29.42
2018-04-19T12:05:25.687Z,29.31
2018-04-19T12:06:25.715Z,29.59
2018-04-19T12:07:25.728Z,29.49
2018-04-19T12:08:25.752Z,29.42
2018-04-19T12:09:25.772Z,29.36
2018-04-19T12:10:25.798Z,29.50
2018-04-19T12:11:25.831Z,29.51
2018-04-19T12:12:25.853Z,29.35
2018-04-19T12:13:25.878Z,28.96
2018-04-19T12:14:25.910Z,28.79
2018-04-19T12:15:25.927Z,29.12
2018-04-19T12:16:25.956Z,29.29
2018-04-19T12:17:25.983Z,29.36
2018-04-19T12:18:26.023Z,29.71
2018-04-19T12:19:26.048Z,29.91
2018-04-19T12:20:26.068Z,29.90
2018-04-19T12:21:26.085Z,29.61
2018-04-19T12:22:26.107Z,29.66
2018-04-19T12:23:26.143Z,29.90
2018-04-19T12:24:26.151Z,29.86
2018-04-19T12:25:26.182Z,30.02
2018-04-19T12:26:26.207Z,30.21
2018-04-19T12:27:26.231Z,29.82
2018-04-19T12:28:26.254Z,29.69
2018-04-19T12:29:26.305Z,29.53
2018-04-19T12:30:26.314Z,29.42
2018-04-19T12:31:26.348Z,29.61
2018-04-19T12:32:26.356Z,29.94
2018-04-19T12:33:26.386Z,30.08
2018-04-19T12:34:26.409Z,30.03
2018-04-19T12:35:26.438Z,29.75
2018-04-19T12:36:26.457Z,30.03
2018-04-19T12:37:26.512Z,30.21
2018-04-19T12:38:26.511Z,30.16
2018-04-19T12:39:26.538Z,30.09
2018-04-19T12:40:26.562Z,30.15
2018-04-19T12:41:26.596Z,30.35
2018-04-19T12:42:26.622Z,30.24
2018-04-19T12:43:26.645Z,30.48
2018-04-19T12:44:26.662Z,30.73
2018-04-19T12:45:26.694Z,30.77
2018-04-19T12:46:26.712Z,30.72
2018-04-19T12:47:26.746Z,30.85
2018-04-19T12:48:26.760Z,30.84
2018-04-19T12:49:26.807Z,30.84
2018-04-19T12:50:26.823Z,30.31
2018-04-19T12:51:26.846Z,30.57
2018-04-19T12:52:26.867Z,30.77
2018-04-19T12:53:26.895Z,30.48
2018-04-19T12:54:26.918Z,30.18
2018-04-19T12:55:26.943Z,30.16
2018-04-19T12:56:27.005Z,30.47
2018-04-19T12:57:26.994Z,30.77
2018-04-19T12:58:27.038Z,30.90
2018-04-19T12:59:27.048Z,30.43
2018-04-19T13:00:27.068Z,30.05
2018-04-19T13:01:27.097Z,29.82
2018-04-19T13:02:27.133Z,29.86
2018-04-19T13:03:27.160Z,29.76
2018-04-19T13:04:27.178Z,29.63
2018-04-19T13:05:27.200Z,29.78
2018-04-19T13:06:27.241Z,30.02
2018-04-19T13:07:27.257Z,30.09
2018-04-19T13:08:27.289Z,30.25